Impacts METAR Board INFO
IDs:

KSLC - Salt Lake City Intl, UT, US

Updated at: 1809 UTC 18 Feb 2018
Potential Impact None Slight Moderate High
Time18/06Z 18/07Z 18/08Z 18/09Z 18/10Z 18/11Z 18/12Z 18/13Z 18/14Z 18/15Z 18/16Z 18/17Z 18/18Z
VIS10 10 10 10 10 10 7 5 8 6 6 7 10
CIG200 150 150 150 150 200 150 110 100 95 95 95 100
CoverBKNBKNBKNBKNBKNOVCOVCOVCOVCOVCOVCOVCBKN
FltCatVFRVFRVFRVFRVFRVFRVFRMVFRVFRVFRVFRVFRVFR
WX--------------HZ--BLDUBLDU----
WDir190180180170170170170180170160170170350
WSpd20 19 24 26 23 21 22 15 23 23 20 20 14
WGst26 30 33 34 32 33 31 29 35 32 33 27 28
Raw hourly METARs
KSLC 180554Z 19020G26KT 10SM FEW100 BKN200 13/M08 A2974 RMK AO2 PK WND 19026/0547 SLP048 T01331083 10150 20128 56027
KSLC 180654Z 18019G30KT 10SM FEW100 BKN150 13/M08 A2972 RMK AO2 PK WND 17030/0649 SLP039 T01331083 401501006
KSLC 180754Z 18024G33KT 10SM FEW110 BKN150 13/M08 A2969 RMK AO2 PK WND 17033/0754 SLP028 T01281078
KSLC 180854Z 17026G34KT 10SM FEW120 BKN150 13/M09 A2968 RMK AO2 PK WND 17034/0852 SLP020 T01331089 56020
KSLC 180954Z 17023G32KT 10SM FEW100 BKN150 13/M09 A2966 RMK AO2 PK WND 16036/0938 SLP013 T01281094
KSLC 181054Z 17021G33KT 10SM SCT150 OVC200 12/M09 A2963 RMK AO2 PK WND 17037/1001 SLP003 T01221094
KSLC 181154Z 17022G31KT 7SM BKN150 OVC200 12/M09 A2962 RMK AO2 PK WND 17037/1111 SLP001 T01171094 10133 20117 56016
KSLC 181254Z 18015G29KT 5SM HZ FEW016 OVC110 12/M10 A2960 RMK AO2 PK WND 17034/1218 SLP993 T01171100
KSLC 181354Z 17023G35KT 8SM OVC100 12/M09 A2958 RMK AO2 PK WND 16035/1351 SLP988 T01171094
KSLC 181454Z 16023G32KT 6SM BLDU OVC095 11/M10 A2958 RMK AO2 PK WND 16034/1409 SLP988 T01111100 56013
KSLC 181554Z 17020G33KT 6SM BLDU BKN095 OVC120 11/M09 A2957 RMK AO2 PK WND 17033/1546 SLP983 T01111094
KSLC 181654Z 17020G27KT 7SM BKN095 OVC120 12/M09 A2954 RMK AO2 PK WND 16034/1633 SLP975 VIRGA DSNT NW-N BLDU ALQDS T01171094
KSLC 181754Z 35014G28KT 10SM BKN100 BKN120 09/00 A2956 RMK AO2 PK WND 16037/1658 WSHFT 1738 SLP984 VIRGA DSNT W-N T00890000 10128 20089 55007